sensor_id;sensor_type;location;lat;lon;timestamp;temperature;humidity
53748;DHT22;39655;53.210;5.768;2024-01-30T00:02:21;5.90;94.50
53748;DHT22;39655;53.210;5.768;2024-01-30T00:04:47;5.90;94.60
53748;DHT22;39655;53.210;5.768;2024-01-30T00:07:12;5.90;94.60
53748;DHT22;39655;53.210;5.768;2024-01-30T00:09:38;5.90;94.60
53748;DHT22;39655;53.210;5.768;2024-01-30T00:12:05;5.90;94.70
53748;DHT22;39655;53.210;5.768;2024-01-30T00:14:31;6.00;94.90
53748;DHT22;39655;53.210;5.768;2024-01-30T00:16:57;5.90;94.80
53748;DHT22;39655;53.210;5.768;2024-01-30T00:19:22;5.90;94.70
53748;DHT22;39655;53.210;5.768;2024-01-30T00:21:48;6.00;95.00
53748;DHT22;39655;53.210;5.768;2024-01-30T00:24:14;6.00;95.00
53748;DHT22;39655;53.210;5.768;2024-01-30T00:26:39;6.00;95.00
53748;DHT22;39655;53.210;5.768;2024-01-30T00:29:05;5.90;94.90
53748;DHT22;39655;53.210;5.768;2024-01-30T00:31:31;5.90;94.90
53748;DHT22;39655;53.210;5.768;2024-01-30T00:33:57;5.90;95.10
53748;DHT22;39655;53.210;5.768;2024-01-30T00:36:22;5.90;95.10
53748;DHT22;39655;53.210;5.768;2024-01-30T00:38:48;5.90;95.10
53748;DHT22;39655;53.210;5.768;2024-01-30T00:41:14;5.80;95.10
53748;DHT22;39655;53.210;5.768;2024-01-30T00:43:40;5.80;95.00
53748;DHT22;39655;53.210;5.768;2024-01-30T00:46:05;5.80;95.10
53748;DHT22;39655;53.210;5.768;2024-01-30T00:48:31;5.70;95.10
53748;DHT22;39655;53.210;5.768;2024-01-30T00:50:57;5.80;95.10
53748;DHT22;39655;53.210;5.768;2024-01-30T00:53:22;5.70;95.10
53748;DHT22;39655;53.210;5.768;2024-01-30T00:55:48;5.70;95.00
53748;DHT22;39655;53.210;5.768;2024-01-30T00:58:13;5.70;95.10
53748;DHT22;39655;53.210;5.768;2024-01-30T01:00:39;5.60;95.00
53748;DHT22;39655;53.210;5.768;2024-01-30T01:03:05;5.60;94.90
53748;DHT22;39655;53.210;5.768;2024-01-30T01:05:30;5.60;94.90
53748;DHT22;39655;53.210;5.768;2024-01-30T01:07:56;5.60;95.00
53748;DHT22;39655;53.210;5.768;2024-01-30T01:10:22;5.70;95.10
53748;DHT22;39655;53.210;5.768;2024-01-30T01:12:48;5.70;95.00
53748;DHT22;39655;53.210;5.768;2024-01-30T01:15:14;5.70;95.00
53748;DHT22;39655;53.210;5.768;2024-01-30T01:17:40;5.70;95.00
53748;DHT22;39655;53.210;5.768;2024-01-30T01:20:06;5.70;95.00
53748;DHT22;39655;53.210;5.768;2024-01-30T01:22:32;5.70;95.00
53748;DHT22;39655;53.210;5.768;2024-01-30T01:25:02;5.70;95.10
53748;DHT22;39655;53.210;5.768;2024-01-30T01:27:27;5.80;95.10
53748;DHT22;39655;53.210;5.768;2024-01-30T01:29:53;5.80;95.20
53748;DHT22;39655;53.210;5.768;2024-01-30T01:32:19;5.80;95.30
53748;DHT22;39655;53.210;5.768;2024-01-30T01:34:45;5.80;95.20
53748;DHT22;39655;53.210;5.768;2024-01-30T01:37:11;5.80;95.20
53748;DHT22;39655;53.210;5.768;2024-01-30T01:39:36;5.90;95.20
53748;DHT22;39655;53.210;5.768;2024-01-30T01:42:02;5.90;95.20
53748;DHT22;39655;53.210;5.768;2024-01-30T01:44:28;6.00;95.30
53748;DHT22;39655;53.210;5.768;2024-01-30T01:46:54;6.10;95.20
53748;DHT22;39655;53.210;5.768;2024-01-30T01:49:22;6.10;95.10
53748;DHT22;39655;53.210;5.768;2024-01-30T01:51:49;6.10;95.00
53748;DHT22;39655;53.210;5.768;2024-01-30T01:54:15;6.10;94.90
53748;DHT22;39655;53.210;5.768;2024-01-30T01:56:42;6.10;95.00
53748;DHT22;39655;53.210;5.768;2024-01-30T01:59:08;6.10;95.00
53748;DHT22;39655;53.210;5.768;2024-01-30T02:01:36;6.20;95.10
53748;DHT22;39655;53.210;5.768;2024-01-30T02:04:02;6.10;95.10
53748;DHT22;39655;53.210;5.768;2024-01-30T02:06:28;6.10;95.10
53748;DHT22;39655;53.210;5.768;2024-01-30T02:08:54;6.10;95.10
53748;DHT22;39655;53.210;5.768;2024-01-30T02:11:21;6.10;95.10
53748;DHT22;39655;53.210;5.768;2024-01-30T02:13:47;6.10;95.00
53748;DHT22;39655;53.210;5.768;2024-01-30T02:16:13;6.10;95.00
53748;DHT22;39655;53.210;5.768;2024-01-30T02:18:39;6.00;95.00
53748;DHT22;39655;53.210;5.768;2024-01-30T02:21:09;6.00;95.00
53748;DHT22;39655;53.210;5.768;2024-01-30T02:23:34;6.10;95.10
53748;DHT22;39655;53.210;5.768;2024-01-30T02:26:00;6.00;95.10
53748;DHT22;39655;53.210;5.768;2024-01-30T02:28:26;6.00;95.20
53748;DHT22;39655;53.210;5.768;2024-01-30T02:30:53;6.10;95.20
53748;DHT22;39655;53.210;5.768;2024-01-30T02:33:18;6.10;95.30
53748;DHT22;39655;53.210;5.768;2024-01-30T02:35:44;6.10;95.10
53748;DHT22;39655;53.210;5.768;2024-01-30T02:38:10;6.10;95.20
53748;DHT22;39655;53.210;5.768;2024-01-30T02:40:38;6.10;95.20
53748;DHT22;39655;53.210;5.768;2024-01-30T02:43:04;6.10;95.20
53748;DHT22;39655;53.210;5.768;2024-01-30T02:45:30;6.10;95.20
53748;DHT22;39655;53.210;5.768;2024-01-30T02:47:56;6.20;95.20
53748;DHT22;39655;53.210;5.768;2024-01-30T02:50:21;6.20;95.20
53748;DHT22;39655;53.210;5.768;2024-01-30T02:52:47;6.20;95.20
53748;DHT22;39655;53.210;5.768;2024-01-30T02:55:12;6.20;95.10
53748;DHT22;39655;53.210;5.768;2024-01-30T02:57:39;6.20;95.20
53748;DHT22;39655;53.210;5.768;2024-01-30T03:00:05;6.20;95.20
53748;DHT22;39655;53.210;5.768;2024-01-30T03:02:32;6.20;95.30
53748;DHT22;39655;53.210;5.768;2024-01-30T03:04:59;6.20;95.30
53748;DHT22;39655;53.210;5.768;2024-01-30T03:07:25;6.20;95.20
53748;DHT22;39655;53.210;5.768;2024-01-30T03:09:50;6.10;95.10
53748;DHT22;39655;53.210;5.768;2024-01-30T03:12:16;6.10;95.10
53748;DHT22;39655;53.210;5.768;2024-01-30T03:14:42;6.00;95.10
53748;DHT22;39655;53.210;5.768;2024-01-30T03:17:08;6.00;95.20
53748;DHT22;39655;53.210;5.768;2024-01-30T03:19:34;5.90;95.20
53748;DHT22;39655;53.210;5.768;2024-01-30T03:21:59;5.90;95.20
53748;DHT22;39655;53.210;5.768;2024-01-30T03:24:25;5.80;95.20
53748;DHT22;39655;53.210;5.768;2024-01-30T03:26:51;5.80;95.30
53748;DHT22;39655;53.210;5.768;2024-01-30T03:29:17;5.80;95.30
53748;DHT22;39655;53.210;5.768;2024-01-30T03:31:43;5.90;95.40
53748;DHT22;39655;53.210;5.768;2024-01-30T03:34:08;5.90;95.40
53748;DHT22;39655;53.210;5.768;2024-01-30T03:36:34;5.90;95.40
53748;DHT22;39655;53.210;5.768;2024-01-30T03:39:00;6.00;95.50
53748;DHT22;39655;53.210;5.768;2024-01-30T03:41:26;6.00;95.50
53748;DHT22;39655;53.210;5.768;2024-01-30T03:43:52;6.10;95.60
53748;DHT22;39655;53.210;5.768;2024-01-30T03:46:17;6.20;95.50
53748;DHT22;39655;53.210;5.768;2024-01-30T03:48:45;6.20;95.50
53748;DHT22;39655;53.210;5.768;2024-01-30T03:51:11;6.10;95.50
53748;DHT22;39655;53.210;5.768;2024-01-30T03:53:41;6.10;95.50
53748;DHT22;39655;53.210;5.768;2024-01-30T03:56:08;6.20;95.50
53748;DHT22;39655;53.210;5.768;2024-01-30T03:58:33;6.20;95.50
53748;DHT22;39655;53.210;5.768;2024-01-30T04:00:59;6.20;95.50
53748;DHT22;39655;53.210;5.768;2024-01-30T04:03:25;6.20;95.50
53748;DHT22;39655;53.210;5.768;2024-01-30T04:05:53;6.20;95.50
53748;DHT22;39655;53.210;5.768;2024-01-30T04:08:19;6.20;95.50
53748;DHT22;39655;53.210;5.768;2024-01-30T04:10:45;6.30;95.60
53748;DHT22;39655;53.210;5.768;2024-01-30T04:13:11;6.30;95.50
53748;DHT22;39655;53.210;5.768;2024-01-30T04:15:37;6.30;95.60
53748;DHT22;39655;53.210;5.768;2024-01-30T04:18:03;6.30;95.50
53748;DHT22;39655;53.210;5.768;2024-01-30T04:20:29;6.30;95.50
53748;DHT22;39655;53.210;5.768;2024-01-30T04:22:55;6.30;95.50
53748;DHT22;39655;53.210;5.768;2024-01-30T04:25:21;6.30;95.50
53748;DHT22;39655;53.210;5.768;2024-01-30T04:27:47;6.30;95.40
53748;DHT22;39655;53.210;5.768;2024-01-30T04:30:13;6.30;95.40
53748;DHT22;39655;53.210;5.768;2024-01-30T04:32:38;6.30;95.40
53748;DHT22;39655;53.210;5.768;2024-01-30T04:35:04;6.30;95.40
53748;DHT22;39655;53.210;5.768;2024-01-30T04:37:30;6.30;95.40
53748;DHT22;39655;53.210;5.768;2024-01-30T04:39:56;6.30;95.40
53748;DHT22;39655;53.210;5.768;2024-01-30T04:42:22;6.30;95.40
53748;DHT22;39655;53.210;5.768;2024-01-30T04:44:48;6.30;95.50
53748;DHT22;39655;53.210;5.768;2024-01-30T04:47:13;6.30;95.60
53748;DHT22;39655;53.210;5.768;2024-01-30T04:49:39;6.30;95.60
53748;DHT22;39655;53.210;5.768;2024-01-30T04:52:06;6.30;95.60
53748;DHT22;39655;53.210;5.768;2024-01-30T04:54:32;6.30;95.50
53748;DHT22;39655;53.210;5.768;2024-01-30T04:56:58;6.30;95.60
53748;DHT22;39655;53.210;5.768;2024-01-30T04:59:24;6.30;95.60
53748;DHT22;39655;53.210;5.768;2024-01-30T05:01:49;6.40;95.60
53748;DHT22;39655;53.210;5.768;2024-01-30T05:04:15;6.40;95.60
53748;DHT22;39655;53.210;5.768;2024-01-30T05:06:41;6.40;95.60
53748;DHT22;39655;53.210;5.768;2024-01-30T05:09:07;6.40;95.70
53748;DHT22;39655;53.210;5.768;2024-01-30T05:11:40;6.40;95.70
53748;DHT22;39655;53.210;5.768;2024-01-30T05:14:06;6.40;95.60
53748;DHT22;39655;53.210;5.768;2024-01-30T05:16:32;6.40;95.60
53748;DHT22;39655;53.210;5.768;2024-01-30T05:18:58;6.50;95.60
53748;DHT22;39655;53.210;5.768;2024-01-30T05:21:24;6.50;95.50
53748;DHT22;39655;53.210;5.768;2024-01-30T05:23:50;6.50;95.60
53748;DHT22;39655;53.210;5.768;2024-01-30T05:26:16;6.50;95.50
53748;DHT22;39655;53.210;5.768;2024-01-30T05:28:41;6.60;95.60
53748;DHT22;39655;53.210;5.768;2024-01-30T05:31:09;6.60;95.50
53748;DHT22;39655;53.210;5.768;2024-01-30T05:33:35;6.60;95.50
53748;DHT22;39655;53.210;5.768;2024-01-30T05:36:01;6.60;95.50
53748;DHT22;39655;53.210;5.768;2024-01-30T05:38:26;6.60;95.50
53748;DHT22;39655;53.210;5.768;2024-01-30T05:40:52;6.70;95.50
53748;DHT22;39655;53.210;5.768;2024-01-30T05:43:18;6.60;95.50
53748;DHT22;39655;53.210;5.768;2024-01-30T05:45:43;6.60;95.40
53748;DHT22;39655;53.210;5.768;2024-01-30T05:48:09;6.70;95.30
53748;DHT22;39655;53.210;5.768;2024-01-30T05:50:35;6.70;95.40
53748;DHT22;39655;53.210;5.768;2024-01-30T05:53:01;6.70;95.30
53748;DHT22;39655;53.210;5.768;2024-01-30T05:55:26;6.80;95.20
53748;DHT22;39655;53.210;5.768;2024-01-30T05:57:52;6.70;95.20
53748;DHT22;39655;53.210;5.768;2024-01-30T06:00:18;6.80;95.20
53748;DHT22;39655;53.210;5.768;2024-01-30T06:02:44;6.80;95.30
53748;DHT22;39655;53.210;5.768;2024-01-30T06:05:09;6.80;95.20
53748;DHT22;39655;53.210;5.768;2024-01-30T06:07:35;6.80;95.20
53748;DHT22;39655;53.210;5.768;2024-01-30T06:10:00;6.80;95.30
53748;DHT22;39655;53.210;5.768;2024-01-30T06:12:27;6.80;95.20
53748;DHT22;39655;53.210;5.768;2024-01-30T06:14:53;6.80;95.20
53748;DHT22;39655;53.210;5.768;2024-01-30T06:17:22;6.80;95.30
53748;DHT22;39655;53.210;5.768;2024-01-30T06:19:48;6.80;95.30
53748;DHT22;39655;53.210;5.768;2024-01-30T06:22:13;6.90;95.30
53748;DHT22;39655;53.210;5.768;2024-01-30T06:24:39;6.90;95.30
53748;DHT22;39655;53.210;5.768;2024-01-30T06:27:04;6.90;95.20
53748;DHT22;39655;53.210;5.768;2024-01-30T06:29:30;6.90;95.20
53748;DHT22;39655;53.210;5.768;2024-01-30T06:31:56;6.90;95.20
53748;DHT22;39655;53.210;5.768;2024-01-30T06:34:22;6.90;95.20
53748;DHT22;39655;53.210;5.768;2024-01-30T06:36:48;6.90;95.20
53748;DHT22;39655;53.210;5.768;2024-01-30T06:39:14;6.90;95.20
53748;DHT22;39655;53.210;5.768;2024-01-30T06:41:39;6.90;95.30
53748;DHT22;39655;53.210;5.768;2024-01-30T06:44:05;6.90;95.30
53748;DHT22;39655;53.210;5.768;2024-01-30T06:46:32;6.90;95.30
53748;DHT22;39655;53.210;5.768;2024-01-30T06:48:58;6.90;95.30
53748;DHT22;39655;53.210;5.768;2024-01-30T06:51:23;6.90;95.30
53748;DHT22;39655;53.210;5.768;2024-01-30T06:53:49;6.90;95.30
53748;DHT22;39655;53.210;5.768;2024-01-30T06:56:16;6.90;95.30
53748;DHT22;39655;53.210;5.768;2024-01-30T06:58:49;6.90;95.30
53748;DHT22;39655;53.210;5.768;2024-01-30T07:01:16;6.90;95.30
53748;DHT22;39655;53.210;5.768;2024-01-30T07:03:42;6.90;95.30
53748;DHT22;39655;53.210;5.768;2024-01-30T07:06:08;6.90;95.30
53748;DHT22;39655;53.210;5.768;2024-01-30T07:08:36;6.90;95.30
53748;DHT22;39655;53.210;5.768;2024-01-30T07:11:02;6.90;95.30
53748;DHT22;39655;53.210;5.768;2024-01-30T07:13:28;6.90;95.30
53748;DHT22;39655;53.210;5.768;2024-01-30T07:15:54;6.90;95.30
53748;DHT22;39655;53.210;5.768;2024-01-30T07:18:19;6.90;95.30
53748;DHT22;39655;53.210;5.768;2024-01-30T07:20:45;7.00;95.30
53748;DHT22;39655;53.210;5.768;2024-01-30T07:23:15;7.00;95.30
53748;DHT22;39655;53.210;5.768;2024-01-30T07:25:44;7.10;95.30
53748;DHT22;39655;53.210;5.768;2024-01-30T07:28:10;7.10;95.30
53748;DHT22;39655;53.210;5.768;2024-01-30T07:30:39;7.10;95.20
53748;DHT22;39655;53.210;5.768;2024-01-30T07:33:04;7.20;95.20
53748;DHT22;39655;53.210;5.768;2024-01-30T07:35:30;7.20;95.20
53748;DHT22;39655;53.210;5.768;2024-01-30T07:37:56;7.20;95.20
53748;DHT22;39655;53.210;5.768;2024-01-30T07:40:22;7.20;95.10
53748;DHT22;39655;53.210;5.768;2024-01-30T07:42:48;7.20;95.10
53748;DHT22;39655;53.210;5.768;2024-01-30T07:45:14;7.20;95.20
53748;DHT22;39655;53.210;5.768;2024-01-30T07:47:40;7.20;95.20
53748;DHT22;39655;53.210;5.768;2024-01-30T07:50:06;7.30;95.30
53748;DHT22;39655;53.210;5.768;2024-01-30T07:52:32;7.40;95.30
53748;DHT22;39655;53.210;5.768;2024-01-30T07:54:57;7.60;95.30
53748;DHT22;39655;53.210;5.768;2024-01-30T07:57:23;7.70;95.30
53748;DHT22;39655;53.210;5.768;2024-01-30T07:59:49;7.80;95.30
53748;DHT22;39655;53.210;5.768;2024-01-30T08:02:15;8.00;95.10
53748;DHT22;39655;53.210;5.768;2024-01-30T08:04:40;8.10;95.00
53748;DHT22;39655;53.210;5.768;2024-01-30T08:07:06;8.20;94.90
53748;DHT22;39655;53.210;5.768;2024-01-30T08:09:32;8.20;94.80
53748;DHT22;39655;53.210;5.768;2024-01-30T08:11:57;8.30;94.70
53748;DHT22;39655;53.210;5.768;2024-01-30T08:14:24;8.40;94.70
53748;DHT22;39655;53.210;5.768;2024-01-30T08:16:51;8.40;94.60
53748;DHT22;39655;53.210;5.768;2024-01-30T08:19:17;8.50;94.50
53748;DHT22;39655;53.210;5.768;2024-01-30T08:21:42;8.60;94.40
53748;DHT22;39655;53.210;5.768;2024-01-30T08:24:08;8.60;94.40
53748;DHT22;39655;53.210;5.768;2024-01-30T08:26:34;8.60;94.30
53748;DHT22;39655;53.210;5.768;2024-01-30T08:29:01;8.70;94.20
53748;DHT22;39655;53.210;5.768;2024-01-30T08:31:27;8.70;94.20
53748;DHT22;39655;53.210;5.768;2024-01-30T08:33:52;8.70;94.20
53748;DHT22;39655;53.210;5.768;2024-01-30T08:36:18;8.70;94.10
53748;DHT22;39655;53.210;5.768;2024-01-30T08:38:44;8.80;94.10
53748;DHT22;39655;53.210;5.768;2024-01-30T08:41:10;8.80;94.10
53748;DHT22;39655;53.210;5.768;2024-01-30T08:43:41;8.90;94.10
53748;DHT22;39655;53.210;5.768;2024-01-30T08:46:07;8.90;94.00
53748;DHT22;39655;53.210;5.768;2024-01-30T08:48:36;8.90;94.00
53748;DHT22;39655;53.210;5.768;2024-01-30T08:51:01;9.00;93.90
53748;DHT22;39655;53.210;5.768;2024-01-30T08:53:27;9.00;93.80
53748;DHT22;39655;53.210;5.768;2024-01-30T08:55:53;9.00;93.80
53748;DHT22;39655;53.210;5.768;2024-01-30T08:58:18;9.00;93.70
53748;DHT22;39655;53.210;5.768;2024-01-30T09:00:44;9.10;93.70
53748;DHT22;39655;53.210;5.768;2024-01-30T09:03:10;9.10;93.70
53748;DHT22;39655;53.210;5.768;2024-01-30T09:05:35;9.10;93.60
53748;DHT22;39655;53.210;5.768;2024-01-30T09:08:01;9.10;93.60
53748;DHT22;39655;53.210;5.768;2024-01-30T09:10:27;9.10;93.60
53748;DHT22;39655;53.210;5.768;2024-01-30T09:12:52;9.20;93.50
53748;DHT22;39655;53.210;5.768;2024-01-30T09:15:18;9.20;93.50
53748;DHT22;39655;53.210;5.768;2024-01-30T09:17:44;9.20;93.40
53748;DHT22;39655;53.210;5.768;2024-01-30T09:20:10;9.30;93.40
53748;DHT22;39655;53.210;5.768;2024-01-30T09:22:36;9.20;93.30
53748;DHT22;39655;53.210;5.768;2024-01-30T09:25:01;9.20;93.40
53748;DHT22;39655;53.210;5.768;2024-01-30T09:27:27;9.20;93.40
53748;DHT22;39655;53.210;5.768;2024-01-30T09:29:53;9.30;93.40
53748;DHT22;39655;53.210;5.768;2024-01-30T09:32:18;9.30;93.30
53748;DHT22;39655;53.210;5.768;2024-01-30T09:34:44;9.30;93.40
53748;DHT22;39655;53.210;5.768;2024-01-30T09:37:10;9.30;93.40
53748;DHT22;39655;53.210;5.768;2024-01-30T09:39:35;9.30;93.40
53748;DHT22;39655;53.210;5.768;2024-01-30T09:42:05;9.30;93.40
53748;DHT22;39655;53.210;5.768;2024-01-30T09:44:35;9.30;93.40
53748;DHT22;39655;53.210;5.768;2024-01-30T09:47:02;9.40;93.50
53748;DHT22;39655;53.210;5.768;2024-01-30T09:49:34;9.40;93.50
53748;DHT22;39655;53.210;5.768;2024-01-30T09:52:02;9.40;93.40
53748;DHT22;39655;53.210;5.768;2024-01-30T09:54:31;9.50;93.40
53748;DHT22;39655;53.210;5.768;2024-01-30T09:56:59;9.50;93.30
53748;DHT22;39655;53.210;5.768;2024-01-30T09:59:25;9.50;93.30
53748;DHT22;39655;53.210;5.768;2024-01-30T10:01:51;9.50;93.30
53748;DHT22;39655;53.210;5.768;2024-01-30T10:04:17;9.60;93.30
53748;DHT22;39655;53.210;5.768;2024-01-30T10:06:43;9.70;93.00
53748;DHT22;39655;53.210;5.768;2024-01-30T10:09:08;9.70;93.00
53748;DHT22;39655;53.210;5.768;2024-01-30T10:11:35;9.70;92.90
53748;DHT22;39655;53.210;5.768;2024-01-30T10:14:01;9.70;92.80
53748;DHT22;39655;53.210;5.768;2024-01-30T10:16:27;9.70;92.80
53748;DHT22;39655;53.210;5.768;2024-01-30T10:18:53;9.70;92.70
53748;DHT22;39655;53.210;5.768;2024-01-30T10:21:19;9.70;92.70
53748;DHT22;39655;53.210;5.768;2024-01-30T10:23:44;9.70;92.70
53748;DHT22;39655;53.210;5.768;2024-01-30T10:26:10;9.70;92.70
53748;DHT22;39655;53.210;5.768;2024-01-30T10:28:36;9.70;92.40
53748;DHT22;39655;53.210;5.768;2024-01-30T10:31:02;9.70;92.20
53748;DHT22;39655;53.210;5.768;2024-01-30T10:33:31;9.70;92.10
53748;DHT22;39655;53.210;5.768;2024-01-30T10:36:01;9.60;92.20
53748;DHT22;39655;53.210;5.768;2024-01-30T10:38:32;9.70;92.20
53748;DHT22;39655;53.210;5.768;2024-01-30T10:40:59;9.60;92.20
53748;DHT22;39655;53.210;5.768;2024-01-30T10:43:32;9.60;92.30
53748;DHT22;39655;53.210;5.768;2024-01-30T10:46:11;9.50;92.30
53748;DHT22;39655;53.210;5.768;2024-01-30T10:48:49;9.50;92.50
53748;DHT22;39655;53.210;5.768;2024-01-30T10:51:16;9.50;92.50
53748;DHT22;39655;53.210;5.768;2024-01-30T10:53:44;9.40;92.80
53748;DHT22;39655;53.210;5.768;2024-01-30T10:56:12;9.40;92.90
53748;DHT22;39655;53.210;5.768;2024-01-30T10:58:38;9.30;93.10
53748;DHT22;39655;53.210;5.768;2024-01-30T11:01:05;9.30;92.90
53748;DHT22;39655;53.210;5.768;2024-01-30T11:03:32;9.20;93.00
53748;DHT22;39655;53.210;5.768;2024-01-30T11:06:00;9.20;93.00
53748;DHT22;39655;53.210;5.768;2024-01-30T11:08:27;9.20;93.20
53748;DHT22;39655;53.210;5.768;2024-01-30T11:10:57;9.20;93.30
53748;DHT22;39655;53.210;5.768;2024-01-30T11:13:29;9.20;93.50
53748;DHT22;39655;53.210;5.768;2024-01-30T11:15:55;9.30;93.80
53748;DHT22;39655;53.210;5.768;2024-01-30T11:18:26;9.30;93.60
53748;DHT22;39655;53.210;5.768;2024-01-30T11:20:56;9.30;93.60
53748;DHT22;39655;53.210;5.768;2024-01-30T11:23:22;9.40;93.60
53748;DHT22;39655;53.210;5.768;2024-01-30T11:25:48;9.30;93.70
53748;DHT22;39655;53.210;5.768;2024-01-30T11:28:15;9.40;93.80
53748;DHT22;39655;53.210;5.768;2024-01-30T11:30:42;9.40;93.80
53748;DHT22;39655;53.210;5.768;2024-01-30T11:33:12;9.30;93.80
53748;DHT22;39655;53.210;5.768;2024-01-30T11:35:40;9.30;93.90
53748;DHT22;39655;53.210;5.768;2024-01-30T11:38:08;9.20;94.00
53748;DHT22;39655;53.210;5.768;2024-01-30T11:40:34;9.20;93.90
53748;DHT22;39655;53.210;5.768;2024-01-30T11:43:02;9.10;94.00
53748;DHT22;39655;53.210;5.768;2024-01-30T11:45:28;9.10;94.00
53748;DHT22;39655;53.210;5.768;2024-01-30T11:47:54;9.00;94.30
53748;DHT22;39655;53.210;5.768;2024-01-30T11:50:21;9.10;94.40
53748;DHT22;39655;53.210;5.768;2024-01-30T11:52:50;9.10;94.40
53748;DHT22;39655;53.210;5.768;2024-01-30T11:55:16;9.10;94.40
53748;DHT22;39655;53.210;5.768;2024-01-30T11:57:42;9.10;94.50
53748;DHT22;39655;53.210;5.768;2024-01-30T12:00:19;9.10;94.50
53748;DHT22;39655;53.210;5.768;2024-01-30T12:02:49;9.10;94.70
53748;DHT22;39655;53.210;5.768;2024-01-30T12:05:15;9.10;94.60
53748;DHT22;39655;53.210;5.768;2024-01-30T12:07:44;9.00;94.70
53748;DHT22;39655;53.210;5.768;2024-01-30T12:10:10;9.00;94.70
53748;DHT22;39655;53.210;5.768;2024-01-30T12:12:36;9.00;94.90
53748;DHT22;39655;53.210;5.768;2024-01-30T12:15:02;8.90;94.90
53748;DHT22;39655;53.210;5.768;2024-01-30T12:17:33;8.90;95.00
53748;DHT22;39655;53.210;5.768;2024-01-30T12:20:07;8.90;95.10
53748;DHT22;39655;53.210;5.768;2024-01-30T12:22:39;9.00;95.30
53748;DHT22;39655;53.210;5.768;2024-01-30T12:25:07;8.90;95.20
53748;DHT22;39655;53.210;5.768;2024-01-30T12:27:34;8.90;95.20
53748;DHT22;39655;53.210;5.768;2024-01-30T12:29:59;9.00;95.30
53748;DHT22;39655;53.210;5.768;2024-01-30T12:32:25;9.10;95.40
53748;DHT22;39655;53.210;5.768;2024-01-30T12:34:54;9.10;95.40
53748;DHT22;39655;53.210;5.768;2024-01-30T12:37:20;9.10;95.30
53748;DHT22;39655;53.210;5.768;2024-01-30T12:39:48;9.10;95.30
53748;DHT22;39655;53.210;5.768;2024-01-30T12:42:14;9.10;95.20
53748;DHT22;39655;53.210;5.768;2024-01-30T12:44:41;9.10;95.30
53748;DHT22;39655;53.210;5.768;2024-01-30T12:47:08;9.10;95.40
53748;DHT22;39655;53.210;5.768;2024-01-30T12:49:34;9.00;95.20
53748;DHT22;39655;53.210;5.768;2024-01-30T12:52:00;8.90;95.30
53748;DHT22;39655;53.210;5.768;2024-01-30T12:54:25;9.00;95.50
53748;DHT22;39655;53.210;5.768;2024-01-30T12:56:51;9.00;95.50
53748;DHT22;39655;53.210;5.768;2024-01-30T12:59:17;8.90;95.40
53748;DHT22;39655;53.210;5.768;2024-01-30T13:01:43;8.90;95.40
53748;DHT22;39655;53.210;5.768;2024-01-30T13:04:08;8.90;95.40
53748;DHT22;39655;53.210;5.768;2024-01-30T13:06:34;8.90;95.40
53748;DHT22;39655;53.210;5.768;2024-01-30T13:09:00;8.90;95.50
53748;DHT22;39655;53.210;5.768;2024-01-30T13:11:25;8.90;95.70
53748;DHT22;39655;53.210;5.768;2024-01-30T13:13:51;8.80;95.60
53748;DHT22;39655;53.210;5.768;2024-01-30T13:16:17;8.80;95.70
53748;DHT22;39655;53.210;5.768;2024-01-30T13:18:44;8.70;95.60
53748;DHT22;39655;53.210;5.768;2024-01-30T13:21:10;8.80;95.80
53748;DHT22;39655;53.210;5.768;2024-01-30T13:23:35;8.80;95.80
53748;DHT22;39655;53.210;5.768;2024-01-30T13:26:01;8.70;95.90
53748;DHT22;39655;53.210;5.768;2024-01-30T13:28:29;8.70;95.90
53748;DHT22;39655;53.210;5.768;2024-01-30T13:30:57;8.70;96.00
53748;DHT22;39655;53.210;5.768;2024-01-30T13:33:23;8.70;96.30
53748;DHT22;39655;53.210;5.768;2024-01-30T13:35:49;8.70;96.20
53748;DHT22;39655;53.210;5.768;2024-01-30T13:38:14;8.60;96.20
53748;DHT22;39655;53.210;5.768;2024-01-30T13:40:41;8.60;96.30
53748;DHT22;39655;53.210;5.768;2024-01-30T13:43:06;8.60;96.40
53748;DHT22;39655;53.210;5.768;2024-01-30T13:45:32;8.60;96.50
53748;DHT22;39655;53.210;5.768;2024-01-30T13:47:57;8.60;96.70
53748;DHT22;39655;53.210;5.768;2024-01-30T13:50:24;8.60;96.60
53748;DHT22;39655;53.210;5.768;2024-01-30T13:52:50;8.60;96.60
53748;DHT22;39655;53.210;5.768;2024-01-30T13:55:15;8.60;96.80
53748;DHT22;39655;53.210;5.768;2024-01-30T13:57:41;8.60;96.90
53748;DHT22;39655;53.210;5.768;2024-01-30T14:00:07;8.60;96.90
53748;DHT22;39655;53.210;5.768;2024-01-30T14:02:33;8.60;96.90
53748;DHT22;39655;53.210;5.768;2024-01-30T14:04:59;8.60;97.10
53748;DHT22;39655;53.210;5.768;2024-01-30T14:07:24;8.60;97.00
53748;DHT22;39655;53.210;5.768;2024-01-30T14:09:50;8.60;97.30
53748;DHT22;39655;53.210;5.768;2024-01-30T14:12:15;8.60;97.10
53748;DHT22;39655;53.210;5.768;2024-01-30T14:14:41;8.60;97.20
53748;DHT22;39655;53.210;5.768;2024-01-30T14:17:07;8.50;97.20
53748;DHT22;39655;53.210;5.768;2024-01-30T14:19:34;8.60;97.20
53748;DHT22;39655;53.210;5.768;2024-01-30T14:21:59;8.60;97.30
53748;DHT22;39655;53.210;5.768;2024-01-30T14:24:25;8.50;97.20
53748;DHT22;39655;53.210;5.768;2024-01-30T14:26:51;8.50;97.20
53748;DHT22;39655;53.210;5.768;2024-01-30T14:29:16;8.50;97.40
53748;DHT22;39655;53.210;5.768;2024-01-30T14:31:42;8.50;97.50
53748;DHT22;39655;53.210;5.768;2024-01-30T14:34:08;8.50;97.40
53748;DHT22;39655;53.210;5.768;2024-01-30T14:36:38;8.50;97.40
53748;DHT22;39655;53.210;5.768;2024-01-30T14:39:04;8.50;97.40
53748;DHT22;39655;53.210;5.768;2024-01-30T14:41:32;8.40;97.30
53748;DHT22;39655;53.210;5.768;2024-01-30T14:43:57;8.40;97.50
53748;DHT22;39655;53.210;5.768;2024-01-30T14:46:23;8.40;97.30
53748;DHT22;39655;53.210;5.768;2024-01-30T14:48:49;8.40;97.30
53748;DHT22;39655;53.210;5.768;2024-01-30T14:51:17;8.40;97.30
53748;DHT22;39655;53.210;5.768;2024-01-30T14:53:43;8.40;97.30
53748;DHT22;39655;53.210;5.768;2024-01-30T14:56:08;8.40;97.40
53748;DHT22;39655;53.210;5.768;2024-01-30T14:58:35;8.30;97.20
53748;DHT22;39655;53.210;5.768;2024-01-30T15:01:01;8.30;97.30
53748;DHT22;39655;53.210;5.768;2024-01-30T15:03:27;8.20;97.30
53748;DHT22;39655;53.210;5.768;2024-01-30T15:05:56;8.20;97.30
53748;DHT22;39655;53.210;5.768;2024-01-30T15:08:22;8.20;97.40
53748;DHT22;39655;53.210;5.768;2024-01-30T15:10:47;8.20;97.40
53748;DHT22;39655;53.210;5.768;2024-01-30T15:13:13;8.20;97.30
53748;DHT22;39655;53.210;5.768;2024-01-30T15:15:38;8.20;97.20
53748;DHT22;39655;53.210;5.768;2024-01-30T15:18:04;8.10;97.10
53748;DHT22;39655;53.210;5.768;2024-01-30T15:20:30;8.00;97.10
53748;DHT22;39655;53.210;5.768;2024-01-30T15:22:57;8.00;97.10
53748;DHT22;39655;53.210;5.768;2024-01-30T15:25:22;8.00;97.10
53748;DHT22;39655;53.210;5.768;2024-01-30T15:27:48;7.90;97.00
53748;DHT22;39655;53.210;5.768;2024-01-30T15:30:14;7.90;97.20
53748;DHT22;39655;53.210;5.768;2024-01-30T15:32:40;7.90;97.30
53748;DHT22;39655;53.210;5.768;2024-01-30T15:35:06;7.90;97.40
53748;DHT22;39655;53.210;5.768;2024-01-30T15:37:32;7.80;97.20
53748;DHT22;39655;53.210;5.768;2024-01-30T15:39:58;7.70;97.20